createdAt,value
2018-10-09T00:03:19.791Z,10.63
2018-10-09T00:06:42.282Z,10.76
2018-10-09T00:10:04.853Z,10.78
2018-10-09T00:13:27.404Z,10.25
2018-10-09T00:16:49.861Z,10.48
2018-10-09T00:20:16.843Z,10.62
2018-10-09T00:23:39.321Z,10.78
2018-10-09T00:27:01.821Z,10.62
2018-10-09T00:30:25.105Z,10.92
2018-10-09T00:33:47.643Z,10.95
2018-10-09T00:37:10.077Z,10.81
2018-10-09T00:40:32.528Z,10.81
2018-10-09T00:43:55.010Z,10.76
2018-10-09T00:51:43.476Z,10.76
2018-10-09T00:55:06.269Z,10.72
2018-10-09T00:58:28.779Z,10.25
2018-10-09T01:01:51.222Z,10.18
2018-10-09T01:05:13.770Z,9.97
2018-10-09T01:08:36.965Z,10.27
2018-10-09T01:11:59.498Z,10.24
2018-10-09T01:15:22.039Z,9.90
2018-10-09T01:18:46.531Z,10.31
2018-10-09T01:22:12.559Z,10.12
2018-10-09T01:25:36.110Z,10.71
2018-10-09T01:28:58.581Z,10.28
2018-10-09T01:32:21.028Z,10.09
2018-10-09T01:35:43.373Z,10.30
2018-10-09T01:39:07.094Z,10.39
2018-10-09T01:42:29.472Z,10.27
2018-10-09T01:45:51.858Z,10.00
2018-10-09T01:49:14.387Z,10.07
2018-10-09T01:52:36.801Z,10.28
2018-10-09T01:55:59.391Z,10.40
2018-10-09T01:59:21.918Z,10.33
2018-10-09T02:02:44.610Z,10.33
2018-10-09T02:06:12.302Z,10.28
2018-10-09T02:09:35.330Z,10.41
2018-10-09T02:12:57.774Z,10.40
2018-10-09T02:16:20.203Z,10.16
2018-10-09T02:19:42.606Z,10.08
2018-10-09T02:23:05.009Z,10.24
2018-10-09T02:26:27.449Z,10.16
2018-10-09T02:29:49.860Z,10.11
2018-10-09T02:33:12.286Z,10.03
2018-10-09T02:36:34.818Z,9.92
2018-10-09T02:39:57.487Z,9.94
2018-10-09T02:43:20.009Z,9.96
2018-10-09T02:46:42.458Z,10.41
2018-10-09T02:50:05.598Z,10.18
2018-10-09T02:53:28.068Z,10.12
2018-10-09T02:56:50.605Z,10.47
2018-10-09T03:00:13.117Z,8.75
2018-10-09T03:03:40.817Z,7.86
2018-10-09T03:07:04.643Z,7.88
2018-10-09T03:10:31.237Z,8.21
2018-10-09T03:13:55.064Z,8.82
2018-10-09T03:17:18.076Z,9.30
2018-10-09T03:21:11.836Z,9.34
2018-10-09T03:24:35.917Z,9.44
2018-10-09T03:27:58.962Z,9.52
2018-10-09T03:31:22.121Z,9.81
2018-10-09T03:34:45.541Z,10.26
2018-10-09T03:38:09.601Z,10.55
2018-10-09T03:41:38.608Z,10.56
2018-10-09T03:45:01.618Z,10.35
2018-10-09T03:48:24.106Z,10.44
2018-10-09T03:51:46.854Z,10.69
2018-10-09T03:55:09.305Z,10.73
2018-10-09T03:58:31.792Z,10.71
2018-10-09T04:01:54.300Z,10.61
2018-10-09T04:05:16.860Z,10.24
2018-10-09T04:08:39.381Z,10.66
2018-10-09T04:12:01.774Z,10.69
2018-10-09T04:15:24.286Z,10.53
2018-10-09T04:18:46.683Z,10.42
2018-10-09T04:22:13.765Z,10.72
2018-10-09T04:25:36.201Z,10.77
2018-10-09T04:28:58.654Z,10.62
2018-10-09T04:32:21.249Z,10.31
2018-10-09T04:35:43.801Z,10.23
2018-10-09T04:39:07.578Z,9.57
2018-10-09T04:42:30.077Z,9.00
2018-10-09T04:45:52.509Z,9.79
2018-10-09T04:49:15.066Z,10.20
2018-10-09T04:52:38.522Z,9.90
2018-10-09T04:56:01.005Z,9.98
2018-10-09T04:59:23.419Z,10.16
2018-10-09T05:02:45.908Z,9.70
2018-10-09T05:06:08.359Z,9.13
2018-10-09T05:09:30.875Z,9.43
2018-10-09T05:12:53.305Z,9.87
2018-10-09T05:16:15.926Z,9.77
2018-10-09T05:20:09.905Z,9.44
2018-10-09T05:23:32.313Z,8.96
2018-10-09T05:26:54.777Z,8.84
2018-10-09T05:30:17.279Z,8.84
2018-10-09T05:33:39.625Z,9.32
2018-10-09T05:37:02.024Z,9.66
2018-10-09T05:40:24.502Z,9.78
2018-10-09T05:43:46.917Z,9.99
2018-10-09T05:47:10.375Z,9.26
2018-10-09T05:50:33.926Z,9.59
2018-10-09T05:53:56.550Z,9.37
2018-10-09T05:57:19.048Z,9.48
2018-10-09T06:00:41.554Z,9.41
2018-10-09T06:04:04.308Z,9.90
2018-10-09T06:07:32.568Z,10.15
2018-10-09T06:10:56.001Z,10.63
2018-10-09T06:14:18.580Z,10.75
2018-10-09T06:17:41.194Z,10.93
2018-10-09T06:21:03.730Z,10.77
2018-10-09T06:24:27.569Z,10.69
2018-10-09T06:27:50.171Z,11.07
2018-10-09T06:31:12.660Z,10.94
2018-10-09T06:34:35.246Z,10.90
2018-10-09T06:37:57.731Z,10.95
2018-10-09T06:41:20.208Z,11.40
2018-10-09T06:44:42.675Z,11.68
2018-10-09T06:48:05.390Z,11.35
2018-10-09T06:51:27.798Z,11.38
2018-10-09T06:54:50.298Z,11.08
2018-10-09T06:58:12.715Z,11.31
2018-10-09T07:01:35.232Z,11.53
2018-10-09T07:04:57.642Z,11.40
2018-10-09T07:08:20.236Z,11.55
2018-10-09T07:11:42.830Z,11.75
2018-10-09T07:15:05.278Z,11.40
2018-10-09T07:18:27.850Z,11.50
2018-10-09T07:21:50.451Z,10.53
2018-10-09T07:25:12.879Z,9.82
2018-10-09T07:28:35.350Z,10.53
2018-10-09T07:31:57.732Z,10.88
2018-10-09T07:35:20.103Z,10.26
2018-10-09T07:38:42.616Z,10.06
2018-10-09T07:42:05.270Z,9.62
2018-10-09T07:45:27.729Z,10.31
2018-10-09T07:48:51.186Z,10.57
2018-10-09T07:52:14.048Z,10.12
2018-10-09T07:55:36.695Z,10.53
2018-10-09T07:58:59.325Z,10.56
2018-10-09T08:02:21.826Z,11.32
2018-10-09T08:05:44.219Z,11.89
2018-10-09T08:09:08.854Z,12.00
2018-10-09T08:12:31.609Z,12.08
2018-10-09T08:15:54.216Z,12.26
2018-10-09T08:19:17.347Z,12.56
2018-10-09T08:22:39.951Z,13.37
2018-10-09T08:26:02.790Z,13.44
2018-10-09T08:29:25.253Z,13.30
2018-10-09T08:32:47.875Z,13.40
2018-10-09T08:36:10.574Z,13.15
2018-10-09T08:39:33.071Z,13.18
2018-10-09T08:42:55.665Z,12.75
2018-10-09T08:46:18.263Z,12.45
2018-10-09T08:49:40.769Z,13.37
2018-10-09T08:53:03.217Z,12.72
2018-10-09T08:56:25.700Z,13.05
2018-10-09T08:59:48.069Z,12.48
2018-10-09T09:03:10.522Z,13.06
2018-10-09T09:06:33.025Z,12.73
2018-10-09T09:09:55.652Z,13.18
2018-10-09T09:13:18.180Z,12.77
2018-10-09T09:16:40.661Z,12.41
2018-10-09T09:20:03.185Z,12.59
2018-10-09T09:23:25.589Z,12.32
2018-10-09T09:26:48.164Z,12.08
2018-10-09T09:30:10.623Z,12.40
2018-10-09T09:33:33.102Z,12.66
2018-10-09T09:36:55.645Z,13.40
2018-10-09T09:40:18.148Z,13.05
2018-10-09T09:43:40.577Z,12.45
2018-10-09T09:47:03.052Z,13.47
2018-10-09T09:50:25.445Z,14.83
2018-10-09T09:53:48.019Z,14.89
2018-10-09T09:57:10.475Z,14.81
2018-10-09T10:00:38.613Z,15.87
2018-10-09T10:04:01.147Z,15.68
2018-10-09T10:07:23.607Z,15.49
2018-10-09T10:10:46.051Z,14.69
2018-10-09T10:14:08.672Z,15.11
2018-10-09T10:17:31.129Z,14.67
2018-10-09T10:20:53.680Z,14.11
2018-10-09T10:24:16.262Z,13.86
2018-10-09T10:27:38.845Z,14.37
2018-10-09T10:31:01.399Z,15.53
2018-10-09T10:34:23.792Z,15.60
2018-10-09T10:37:46.483Z,16.26
2018-10-09T10:41:09.134Z,16.92
2018-10-09T10:44:31.571Z,17.25
2018-10-09T10:47:53.994Z,17.47
2018-10-09T10:51:16.595Z,17.99
2018-10-09T10:54:39.112Z,17.87
2018-10-09T10:58:01.622Z,17.01
2018-10-09T11:01:24.076Z,16.30
2018-10-09T11:04:46.523Z,16.93
2018-10-09T11:08:08.997Z,16.75
2018-10-09T11:11:31.376Z,17.13
2018-10-09T11:14:53.830Z,16.72
2018-10-09T11:18:16.298Z,16.25
2018-10-09T11:21:38.723Z,16.39
2018-10-09T11:25:01.253Z,17.38
2018-10-09T11:28:23.638Z,17.13
2018-10-09T11:31:46.023Z,16.81
2018-10-09T11:35:08.523Z,17.16
2018-10-09T11:38:31.086Z,17.63
2018-10-09T11:41:53.724Z,18.07
2018-10-09T11:45:16.261Z,17.66
2018-10-09T11:48:38.649Z,18.27
2018-10-09T11:52:01.159Z,19.03
2018-10-09T11:55:23.635Z,18.35
2018-10-09T11:58:46.285Z,18.97
2018-10-09T12:02:08.612Z,18.36
2018-10-09T12:05:31.095Z,18.98
2018-10-09T12:08:53.445Z,19.50
2018-10-09T12:12:15.954Z,19.66
2018-10-09T12:15:38.521Z,19.29
2018-10-09T12:19:00.991Z,19.75
2018-10-09T12:22:23.463Z,19.77
2018-10-09T12:25:45.930Z,20.59
2018-10-09T12:29:08.358Z,20.75
2018-10-09T12:32:30.824Z,20.87
2018-10-09T12:35:53.276Z,20.76
2018-10-09T12:39:15.896Z,20.40
2018-10-09T12:42:38.392Z,20.52
2018-10-09T12:46:00.801Z,20.11
2018-10-09T12:49:23.218Z,19.80
2018-10-09T12:52:45.601Z,20.52
2018-10-09T12:56:09.025Z,20.94
2018-10-09T12:59:31.485Z,21.57
2018-10-09T13:02:53.859Z,21.32
2018-10-09T13:06:16.254Z,21.01
2018-10-09T13:09:38.724Z,21.38
2018-10-09T13:13:01.215Z,21.63
2018-10-09T13:16:23.688Z,21.11
2018-10-09T13:19:48.076Z,20.18
2018-10-09T13:23:11.688Z,20.37
2018-10-09T13:26:34.183Z,20.93
2018-10-09T13:29:58.617Z,22.04
2018-10-09T13:33:21.036Z,21.92
2018-10-09T13:36:43.470Z,21.83
2018-10-09T13:40:07.896Z,22.53
2018-10-09T13:43:32.368Z,22.41
2018-10-09T13:47:12.888Z,22.89
2018-10-09T13:50:35.282Z,22.53
2018-10-09T13:53:57.581Z,22.48
2018-10-09T13:57:20.170Z,22.71
2018-10-09T14:00:42.639Z,22.88
2018-10-09T14:04:05.182Z,23.58
2018-10-09T14:07:29.093Z,24.04
2018-10-09T14:10:51.689Z,23.60
2018-10-09T14:14:14.157Z,23.41
2018-10-09T14:17:36.473Z,24.23
2018-10-09T14:20:58.852Z,25.07
2018-10-09T14:24:21.246Z,24.91
2018-10-09T14:27:43.577Z,25.10
2018-10-09T14:31:06.184Z,25.81
2018-10-09T14:34:28.448Z,26.01
2018-10-09T14:37:50.749Z,26.31
2018-10-09T14:41:13.235Z,25.71
2018-10-09T14:44:35.591Z,25.90
2018-10-09T14:47:58.042Z,25.56
2018-10-09T14:51:20.453Z,25.96
2018-10-09T14:54:42.872Z,26.07
2018-10-09T14:58:05.319Z,26.37
2018-10-09T15:01:27.761Z,26.48
2018-10-09T15:04:50.216Z,26.50
2018-10-09T15:08:12.778Z,25.57
2018-10-09T15:11:35.141Z,24.16
2018-10-09T15:14:57.673Z,24.20
2018-10-09T15:18:20.103Z,24.31
2018-10-09T15:21:42.492Z,24.76
2018-10-09T15:25:04.877Z,24.78
2018-10-09T15:28:27.196Z,24.02
2018-10-09T15:31:49.633Z,23.67
2018-10-09T15:35:12.020Z,23.48
2018-10-09T15:38:34.389Z,23.74
2018-10-09T15:41:57.737Z,23.70
2018-10-09T15:45:21.100Z,23.84
2018-10-09T15:48:44.379Z,23.64
2018-10-09T15:52:06.768Z,23.48
2018-10-09T15:55:31.140Z,23.37
2018-10-09T15:58:53.673Z,22.72
2018-10-09T16:02:16.215Z,21.92
2018-10-09T16:05:38.595Z,22.09
2018-10-09T16:09:02.040Z,21.99
2018-10-09T16:12:24.460Z,22.23
2018-10-09T16:15:46.881Z,22.11
2018-10-09T16:19:09.377Z,22.07
2018-10-09T16:22:36.033Z,21.99
2018-10-09T16:25:58.322Z,21.63
2018-10-09T16:29:20.708Z,21.47
2018-10-09T16:32:43.318Z,20.83
2018-10-09T16:36:05.601Z,20.40
2018-10-09T16:39:28.012Z,19.90
2018-10-09T16:42:50.389Z,19.58
2018-10-09T16:46:12.702Z,19.31
2018-10-09T16:49:36.721Z,19.11
2018-10-09T16:52:59.054Z,19.09
2018-10-09T16:56:21.531Z,19.46
2018-10-09T16:59:44.048Z,19.37
2018-10-09T17:03:06.396Z,17.60
2018-10-09T17:06:28.857Z,17.81
2018-10-09T17:09:51.177Z,17.68
2018-10-09T17:13:13.667Z,16.58
2018-10-09T17:16:36.324Z,16.47
2018-10-09T17:19:59.082Z,16.89
2018-10-09T17:23:21.718Z,16.14
2018-10-09T17:26:44.185Z,15.58
2018-10-09T17:30:08.761Z,15.87
2018-10-09T17:33:33.263Z,15.59
2018-10-09T17:36:57.696Z,15.98
2018-10-09T17:40:24.128Z,16.25
2018-10-09T17:43:49.691Z,16.21
2018-10-09T17:47:12.059Z,16.21
2018-10-09T17:50:38.698Z,16.26
2018-10-09T17:54:01.323Z,16.29
2018-10-09T17:57:23.853Z,16.15
2018-10-09T18:00:46.419Z,15.70
2018-10-09T18:04:10.033Z,15.53
2018-10-09T18:07:32.496Z,15.21
2018-10-09T18:10:57.424Z,14.92
2018-10-09T18:14:19.937Z,15.14
2018-10-09T18:17:43.821Z,15.46
2018-10-09T18:21:06.325Z,15.55
2018-10-09T18:24:28.781Z,15.38
2018-10-09T18:27:52.315Z,15.35
2018-10-09T18:31:14.946Z,15.10
2018-10-09T18:34:37.385Z,15.26
2018-10-09T18:38:03.986Z,14.98
2018-10-09T18:41:26.656Z,14.82
2018-10-09T18:44:51.682Z,14.67
2018-10-09T18:48:14.222Z,14.72
2018-10-09T18:51:36.906Z,15.02
2018-10-09T18:55:00.445Z,14.71
2018-10-09T18:58:27.215Z,15.11
2018-10-09T19:01:50.229Z,14.89
2018-10-09T19:05:12.707Z,14.27
2018-10-09T19:08:37.418Z,14.56
2018-10-09T19:12:01.033Z,14.54
2018-10-09T19:15:24.515Z,14.36
2018-10-09T19:18:47.182Z,14.51
2018-10-09T19:22:09.601Z,14.00
2018-10-09T19:25:32.046Z,14.10
2018-10-09T19:28:54.544Z,14.12
2018-10-09T19:32:16.989Z,13.77
2018-10-09T19:35:41.045Z,13.97
2018-10-09T19:39:05.774Z,13.88
2018-10-09T19:42:28.120Z,14.03
2018-10-09T19:45:50.616Z,13.69
2018-10-09T19:49:12.932Z,13.98
2018-10-09T19:52:35.860Z,13.82
2018-10-09T19:55:58.517Z,13.56
2018-10-09T19:59:21.006Z,13.53
2018-10-09T20:02:43.407Z,13.66
2018-10-09T20:06:06.117Z,13.59
2018-10-09T20:09:28.535Z,13.59
2018-10-09T20:12:50.915Z,13.45
2018-10-09T20:16:13.533Z,13.25
2018-10-09T20:19:35.887Z,13.00
2018-10-09T20:22:58.288Z,12.79
2018-10-09T20:26:20.876Z,13.12
2018-10-09T20:29:43.291Z,13.03
2018-10-09T20:33:05.768Z,12.87
2018-10-09T20:36:28.163Z,12.91
2018-10-09T20:39:50.635Z,13.04
2018-10-09T20:43:13.071Z,12.92
2018-10-09T20:46:35.472Z,12.96
2018-10-09T20:49:57.852Z,12.85
2018-10-09T20:53:20.320Z,12.68
2018-10-09T20:56:42.788Z,12.85
2018-10-09T21:00:05.277Z,12.93
2018-10-09T21:03:28.084Z,12.71
2018-10-09T21:06:50.529Z,12.68
2018-10-09T21:10:13.252Z,12.68
2018-10-09T21:13:35.720Z,12.43
2018-10-09T21:16:58.928Z,11.40
2018-10-09T21:20:21.374Z,11.77
2018-10-09T21:23:44.887Z,12.25
2018-10-09T21:27:07.318Z,12.28
2018-10-09T21:30:29.753Z,11.78
2018-10-09T21:33:52.342Z,11.84
2018-10-09T21:37:15.876Z,11.94
2018-10-09T21:40:38.320Z,11.60
2018-10-09T21:44:00.786Z,11.83
2018-10-09T21:47:23.185Z,12.04
2018-10-09T21:50:45.466Z,12.08
2018-10-09T21:54:07.948Z,12.32
2018-10-09T21:57:30.425Z,12.17
2018-10-09T22:00:58.433Z,11.99
2018-10-09T22:04:20.756Z,12.02
2018-10-09T22:07:43.143Z,11.10
2018-10-09T22:11:05.586Z,11.50
2018-10-09T22:14:28.051Z,11.68
2018-10-09T22:17:50.533Z,11.54
2018-10-09T22:21:12.841Z,11.85
2018-10-09T22:24:35.297Z,11.83
2018-10-09T22:27:57.707Z,12.10
2018-10-09T22:31:20.162Z,11.84
2018-10-09T22:34:42.633Z,11.77
2018-10-09T22:38:05.151Z,11.76
2018-10-09T22:41:27.530Z,11.86
2018-10-09T22:44:49.948Z,11.91
2018-10-09T22:48:12.410Z,11.99
2018-10-09T22:51:34.903Z,11.50
2018-10-09T22:55:12.242Z,11.53
2018-10-09T22:58:34.533Z,11.65
2018-10-09T23:01:56.837Z,11.31
2018-10-09T23:05:19.131Z,11.36
2018-10-09T23:08:41.619Z,11.50
2018-10-09T23:12:04.095Z,11.26
2018-10-09T23:15:26.456Z,11.53
2018-10-09T23:18:48.881Z,11.57
2018-10-09T23:22:11.242Z,11.38
2018-10-09T23:25:33.521Z,11.02
2018-10-09T23:28:55.807Z,11.39
2018-10-09T23:32:18.209Z,11.12
2018-10-09T23:35:40.720Z,11.42
2018-10-09T23:39:04.069Z,11.18
2018-10-09T23:42:26.375Z,11.25
2018-10-09T23:45:48.694Z,11.25
2018-10-09T23:49:11.893Z,11.04
2018-10-09T23:52:34.320Z,11.31
2018-10-09T23:55:56.707Z,11.32
2018-10-09T23:59:18.998Z,11.11
